createdAt,value
2018-03-30T00:01:58.271Z,21.03
2018-03-30T00:04:25.901Z,23.07
2018-03-30T00:06:53.503Z,24.40
2018-03-30T00:09:32.909Z,24.53
2018-03-30T00:12:01.192Z,21.33
2018-03-30T00:14:28.927Z,22.53
2018-03-30T00:16:56.444Z,22.93
2018-03-30T00:19:23.957Z,22.47
2018-03-30T00:21:51.524Z,23.43
2018-03-30T00:24:19.079Z,21.77
2018-03-30T00:26:46.717Z,23.40
2018-03-30T00:29:15.005Z,21.30
2018-03-30T00:31:43.302Z,22.83
2018-03-30T00:34:10.830Z,23.20
2018-03-30T00:36:38.348Z,23.90
2018-03-30T00:39:05.880Z,26.90
2018-03-30T00:41:33.513Z,24.57
2018-03-30T00:44:01.784Z,23.80
2018-03-30T00:46:30.159Z,26.77
2018-03-30T00:48:57.679Z,50.73
2018-03-30T00:51:25.223Z,31.63
2018-03-30T00:53:52.754Z,30.77
2018-03-30T00:56:20.270Z,27.60
2018-03-30T00:58:47.902Z,24.30
2018-03-30T01:01:15.430Z,23.00
2018-03-30T01:03:42.959Z,26.87
2018-03-30T01:06:11.251Z,24.30
2018-03-30T01:08:38.766Z,24.23
2018-03-30T01:11:10.111Z,22.70
2018-03-30T01:13:37.659Z,25.97
2018-03-30T01:18:49.043Z,25.80
2018-03-30T01:21:23.247Z,21.77
2018-03-30T01:23:50.783Z,24.60
2018-03-30T01:26:19.082Z,23.40
2018-03-30T01:28:46.667Z,29.03
2018-03-30T01:31:14.211Z,32.90
2018-03-30T01:33:41.736Z,45.90
2018-03-30T01:36:09.256Z,74.43
2018-03-30T01:38:36.779Z,41.23
2018-03-30T01:41:04.365Z,28.53
2018-03-30T01:43:31.878Z,25.97
2018-03-30T01:46:00.163Z,23.80
2018-03-30T01:48:28.466Z,26.93
2018-03-30T01:50:56.061Z,25.13
2018-03-30T01:53:23.619Z,25.10
2018-03-30T01:55:51.214Z,25.47
2018-03-30T01:58:19.490Z,28.57
2018-03-30T02:00:47.789Z,23.47
2018-03-30T02:03:16.439Z,24.03
2018-03-30T02:05:44.717Z,26.10
2018-03-30T02:08:13.005Z,23.70
2018-03-30T02:10:41.287Z,29.50
2018-03-30T02:13:08.800Z,27.03
2018-03-30T02:15:36.386Z,25.13
2018-03-30T02:18:04.652Z,28.27
2018-03-30T02:20:32.942Z,26.73
2018-03-30T02:23:01.251Z,26.03
2018-03-30T02:25:28.768Z,31.30
2018-03-30T02:27:56.347Z,28.73
2018-03-30T02:30:24.593Z,31.50
2018-03-30T02:32:52.889Z,26.63
2018-03-30T02:35:21.190Z,26.53
2018-03-30T02:37:48.721Z,26.73
2018-03-30T02:40:17.109Z,34.40
2018-03-30T02:42:45.474Z,31.30
2018-03-30T02:45:13.028Z,30.50
2018-03-30T02:47:40.554Z,29.83
2018-03-30T02:50:08.657Z,29.07
2018-03-30T02:52:37.895Z,29.97
2018-03-30T02:55:05.402Z,31.80
2018-03-30T02:57:32.990Z,35.17
2018-03-30T03:00:02.203Z,32.67
2018-03-30T03:02:30.430Z,34.33
2018-03-30T03:04:57.938Z,34.70
2018-03-30T03:07:25.467Z,30.13
2018-03-30T03:09:53.742Z,35.10
2018-03-30T03:12:22.019Z,34.50
2018-03-30T03:14:50.314Z,33.27
2018-03-30T03:17:17.833Z,36.07
2018-03-30T03:19:45.352Z,34.23
2018-03-30T03:22:12.869Z,35.97
2018-03-30T03:24:41.148Z,35.80
2018-03-30T03:27:08.683Z,35.87
2018-03-30T03:29:36.272Z,38.37
2018-03-30T03:32:03.786Z,37.00
2018-03-30T03:34:31.319Z,35.87
2018-03-30T03:36:58.870Z,35.27
2018-03-30T03:39:26.383Z,39.13
2018-03-30T03:41:53.932Z,44.03
2018-03-30T03:44:21.653Z,35.67
2018-03-30T03:46:49.164Z,36.27
2018-03-30T03:49:16.691Z,41.43
2018-03-30T03:51:44.206Z,36.83
2018-03-30T03:54:11.727Z,38.37
2018-03-30T03:56:39.274Z,37.90
2018-03-30T03:59:06.755Z,37.60
2018-03-30T04:01:34.305Z,36.67
2018-03-30T04:04:01.812Z,38.47
2018-03-30T04:06:29.332Z,40.87
2018-03-30T04:08:56.889Z,40.50
2018-03-30T04:11:25.175Z,41.13
2018-03-30T04:13:53.460Z,40.87
2018-03-30T04:16:20.989Z,38.93
2018-03-30T04:18:48.519Z,39.40
2018-03-30T04:21:16.092Z,43.03
2018-03-30T04:23:43.650Z,38.73
2018-03-30T04:26:11.168Z,43.77
2018-03-30T04:28:38.675Z,39.53
2018-03-30T04:31:06.199Z,42.47
2018-03-30T04:33:33.709Z,43.40
2018-03-30T04:36:01.231Z,42.63
2018-03-30T04:38:28.828Z,42.10
2018-03-30T04:40:56.367Z,42.57
2018-03-30T04:43:23.900Z,42.57
2018-03-30T04:45:51.433Z,42.27
2018-03-30T04:48:19.048Z,43.17
2018-03-30T04:50:47.351Z,45.13
2018-03-30T04:53:14.875Z,43.50
2018-03-30T04:55:42.396Z,44.53
2018-03-30T04:58:09.906Z,43.67
2018-03-30T05:00:37.420Z,46.33
2018-03-30T05:03:04.934Z,42.47
2018-03-30T05:05:33.242Z,43.70
2018-03-30T05:08:01.532Z,44.53
2018-03-30T05:10:29.060Z,44.60
2018-03-30T05:12:56.579Z,45.17
2018-03-30T05:15:24.105Z,44.73
2018-03-30T05:17:51.641Z,44.90
2018-03-30T05:20:19.175Z,42.87
2018-03-30T05:22:47.451Z,43.00
2018-03-30T05:25:15.729Z,41.90
2018-03-30T05:27:44.006Z,43.17
2018-03-30T05:30:12.308Z,43.07
2018-03-30T05:32:39.812Z,43.70
2018-03-30T05:35:07.334Z,45.80
2018-03-30T05:37:34.867Z,43.90
2018-03-30T05:40:03.135Z,43.17
2018-03-30T05:42:31.423Z,42.17
2018-03-30T05:44:58.992Z,41.70
2018-03-30T05:47:26.526Z,42.87
2018-03-30T05:49:54.810Z,42.80
2018-03-30T05:52:22.337Z,43.60
2018-03-30T05:54:49.998Z,40.10
2018-03-30T05:57:19.153Z,37.30
2018-03-30T05:59:46.672Z,39.40
2018-03-30T06:02:14.983Z,36.73
2018-03-30T06:04:42.503Z,38.10
2018-03-30T06:07:10.026Z,40.63
2018-03-30T06:09:37.536Z,39.17
2018-03-30T06:12:05.804Z,40.90
2018-03-30T06:14:34.079Z,39.00
2018-03-30T06:17:02.693Z,38.10
2018-03-30T06:19:30.218Z,40.67
2018-03-30T06:21:58.526Z,38.43
2018-03-30T06:24:26.060Z,37.87
2018-03-30T06:26:53.610Z,37.27
2018-03-30T06:29:21.892Z,36.03
2018-03-30T06:31:50.170Z,37.13
2018-03-30T06:34:18.460Z,35.70
2018-03-30T06:36:45.973Z,42.40
2018-03-30T06:39:13.509Z,34.73
2018-03-30T06:41:41.152Z,38.00
2018-03-30T06:44:08.729Z,35.80
2018-03-30T06:46:36.239Z,34.53
2018-03-30T06:49:03.794Z,32.87
2018-03-30T06:51:32.088Z,36.23
2018-03-30T06:53:59.619Z,35.83
2018-03-30T06:56:27.896Z,32.10
2018-03-30T06:58:56.188Z,36.50
2018-03-30T07:01:24.473Z,33.57
2018-03-30T07:03:52.033Z,36.07
2018-03-30T07:06:19.542Z,34.87
2018-03-30T07:08:47.053Z,34.57
2018-03-30T07:11:14.568Z,34.60
2018-03-30T07:13:42.887Z,34.97
2018-03-30T07:16:11.237Z,35.30
2018-03-30T07:18:39.143Z,36.30
2018-03-30T07:21:06.890Z,32.53
2018-03-30T07:23:34.400Z,35.27
2018-03-30T07:26:01.936Z,33.67
2018-03-30T07:28:29.447Z,33.73
2018-03-30T07:30:57.057Z,30.70
2018-03-30T07:33:24.667Z,34.23
2018-03-30T07:35:52.989Z,34.00
2018-03-30T07:38:20.525Z,36.50
2018-03-30T07:40:48.028Z,34.17
2018-03-30T07:43:15.538Z,32.30
2018-03-30T07:45:43.085Z,30.43
2018-03-30T07:48:11.384Z,33.70
2018-03-30T07:50:38.916Z,34.23
2018-03-30T07:53:06.461Z,33.07
2018-03-30T07:55:33.978Z,32.30
2018-03-30T07:58:01.486Z,32.67
2018-03-30T08:00:29.030Z,31.87
2018-03-30T08:02:56.534Z,33.67
2018-03-30T08:05:24.044Z,35.83
2018-03-30T08:07:53.087Z,30.87
2018-03-30T08:10:20.625Z,32.93
2018-03-30T08:12:48.144Z,32.07
2018-03-30T08:15:16.070Z,35.83
2018-03-30T08:17:43.610Z,34.33
2018-03-30T08:20:11.897Z,33.27
2018-03-30T08:22:39.406Z,34.87
2018-03-30T08:25:07.100Z,31.07
2018-03-30T08:27:34.636Z,30.70
2018-03-30T08:30:02.156Z,33.10
2018-03-30T08:32:29.771Z,30.77
2018-03-30T08:34:58.151Z,31.77
2018-03-30T08:37:25.712Z,33.27
2018-03-30T08:39:53.973Z,30.40
2018-03-30T08:42:21.482Z,33.63
2018-03-30T08:44:49.000Z,31.97
2018-03-30T08:47:16.579Z,33.93
2018-03-30T08:49:44.088Z,33.37
2018-03-30T08:52:14.273Z,30.83
2018-03-30T08:54:41.787Z,31.07
2018-03-30T08:57:10.066Z,35.03
2018-03-30T08:59:37.566Z,33.47
2018-03-30T09:02:05.093Z,30.03
2018-03-30T09:04:33.367Z,32.10
2018-03-30T09:07:01.677Z,31.50
2018-03-30T09:09:29.193Z,29.57
2018-03-30T09:11:56.692Z,32.33
2018-03-30T09:14:24.207Z,32.07
2018-03-30T09:16:52.495Z,32.47
2018-03-30T09:19:20.773Z,29.47
2018-03-30T09:21:49.055Z,30.23
2018-03-30T09:24:17.328Z,31.23
2018-03-30T09:26:45.602Z,31.03
2018-03-30T09:29:13.870Z,32.47
2018-03-30T09:31:42.179Z,28.43
2018-03-30T09:34:09.747Z,27.57
2018-03-30T09:36:37.260Z,28.60
2018-03-30T09:39:05.536Z,27.97
2018-03-30T09:41:33.828Z,29.03
2018-03-30T09:44:02.136Z,28.97
2018-03-30T09:46:29.695Z,30.93
2018-03-30T09:48:57.227Z,27.27
2018-03-30T09:51:24.767Z,27.00
2018-03-30T09:53:52.292Z,29.33
2018-03-30T09:56:19.828Z,28.87
2018-03-30T09:58:47.385Z,27.57
2018-03-30T10:01:16.680Z,28.17
2018-03-30T10:03:51.624Z,29.70
2018-03-30T10:06:19.146Z,26.60
2018-03-30T10:08:46.669Z,27.43
2018-03-30T10:11:14.183Z,26.70
2018-03-30T10:13:41.715Z,26.27
2018-03-30T10:16:09.231Z,27.47
2018-03-30T10:18:36.750Z,28.23
2018-03-30T10:21:04.275Z,24.23
2018-03-30T10:23:32.565Z,28.00
2018-03-30T10:26:00.847Z,29.17
2018-03-30T10:28:28.371Z,27.67
2018-03-30T10:30:55.870Z,24.27
2018-03-30T10:33:23.375Z,26.37
2018-03-30T10:35:50.882Z,27.10
2018-03-30T10:38:18.416Z,28.30
2018-03-30T10:40:45.918Z,26.23
2018-03-30T10:43:13.445Z,25.50
2018-03-30T10:45:41.730Z,28.20
2018-03-30T10:48:09.248Z,26.03
2018-03-30T10:50:36.777Z,27.03
2018-03-30T10:53:04.285Z,26.43
2018-03-30T10:55:32.582Z,26.77
2018-03-30T10:58:00.094Z,26.80
2018-03-30T11:00:27.672Z,26.43
2018-03-30T11:02:55.184Z,26.97
2018-03-30T11:05:22.768Z,26.57
2018-03-30T11:07:50.256Z,27.73
2018-03-30T11:10:18.529Z,27.17
2018-03-30T11:12:46.808Z,27.57
2018-03-30T11:15:15.092Z,27.93
2018-03-30T11:17:43.371Z,26.10
2018-03-30T11:20:11.631Z,26.13
2018-03-30T11:22:39.904Z,29.30
2018-03-30T11:25:09.983Z,27.43
2018-03-30T11:27:37.630Z,29.40
2018-03-30T11:30:05.150Z,27.97
2018-03-30T11:32:33.426Z,28.77
2018-03-30T11:35:01.701Z,26.17
2018-03-30T11:37:30.085Z,29.83
2018-03-30T11:39:58.434Z,29.33
2018-03-30T11:42:25.947Z,29.93
2018-03-30T11:44:53.456Z,28.13
2018-03-30T11:47:21.852Z,28.03
2018-03-30T11:49:50.122Z,27.23
2018-03-30T11:52:18.745Z,28.97
2018-03-30T11:54:46.260Z,28.00
2018-03-30T11:57:13.770Z,27.60
2018-03-30T11:59:41.288Z,29.80
2018-03-30T12:02:08.801Z,28.17
2018-03-30T12:04:36.334Z,26.40
2018-03-30T12:07:03.860Z,24.00
2018-03-30T12:09:31.391Z,27.60
2018-03-30T12:11:58.930Z,29.17
2018-03-30T12:14:26.551Z,26.80
2018-03-30T12:16:54.103Z,30.00
2018-03-30T12:19:22.402Z,27.13
2018-03-30T12:21:49.920Z,26.67
2018-03-30T12:24:18.227Z,31.00
2018-03-30T12:26:45.757Z,27.60
2018-03-30T12:29:13.353Z,26.90
2018-03-30T12:31:40.900Z,24.23
2018-03-30T12:34:08.442Z,26.27
2018-03-30T12:36:35.969Z,25.77
2018-03-30T12:39:03.489Z,26.07
2018-03-30T12:41:30.994Z,24.93
2018-03-30T12:44:00.009Z,28.30
2018-03-30T12:46:27.568Z,28.20
2018-03-30T12:48:55.112Z,27.17
2018-03-30T12:51:22.659Z,24.87
2018-03-30T12:53:50.965Z,22.93
2018-03-30T12:56:18.488Z,22.10
2018-03-30T12:58:46.031Z,23.17
2018-03-30T13:01:13.559Z,22.80
2018-03-30T13:03:41.124Z,23.77
2018-03-30T13:06:09.701Z,24.30
2018-03-30T13:08:37.964Z,23.47
2018-03-30T13:11:05.480Z,23.97
2018-03-30T13:13:33.001Z,22.53
2018-03-30T13:16:01.288Z,23.53
2018-03-30T13:18:29.012Z,25.10
2018-03-30T13:20:56.540Z,23.73
2018-03-30T13:23:24.059Z,24.03
2018-03-30T13:25:51.702Z,22.73
2018-03-30T13:28:20.006Z,22.50
2018-03-30T13:30:47.520Z,21.83
2018-03-30T13:33:15.055Z,22.37
2018-03-30T13:35:42.621Z,21.20
2018-03-30T13:38:10.141Z,20.70
2018-03-30T13:40:37.675Z,20.10
2018-03-30T13:43:05.964Z,21.10
2018-03-30T13:45:33.512Z,20.93
2018-03-30T13:48:01.027Z,20.93
2018-03-30T13:50:44.210Z,21.23
2018-03-30T13:53:12.633Z,22.27
2018-03-30T13:55:41.299Z,20.17
2018-03-30T13:58:10.620Z,19.23
2018-03-30T14:00:42.702Z,19.97
2018-03-30T14:03:10.236Z,18.93
2018-03-30T14:05:43.454Z,19.50
2018-03-30T14:08:15.260Z,19.67
2018-03-30T14:10:46.763Z,20.20
2018-03-30T14:13:14.299Z,18.87
2018-03-30T14:18:43.700Z,19.07
2018-03-30T14:21:12.141Z,17.93
2018-03-30T14:23:40.435Z,16.23
2018-03-30T14:26:15.648Z,17.57
2018-03-30T14:28:46.579Z,15.87
2018-03-30T14:31:17.576Z,14.27
2018-03-30T14:33:45.305Z,14.40
2018-03-30T14:36:21.234Z,14.07
2018-03-30T14:38:56.146Z,12.40
2018-03-30T14:41:23.676Z,11.20
2018-03-30T14:43:53.687Z,11.67
2018-03-30T14:46:42.667Z,11.90
2018-03-30T14:49:13.813Z,11.30
2018-03-30T14:51:44.889Z,11.40
2018-03-30T14:54:17.876Z,11.50
2018-03-30T14:56:45.421Z,12.07
2018-03-30T14:59:16.391Z,11.37
2018-03-30T15:01:53.880Z,11.67
2018-03-30T15:04:32.115Z,12.33
2018-03-30T15:07:02.582Z,12.93
2018-03-30T15:09:36.000Z,14.10
2018-03-30T15:12:12.064Z,12.30
2018-03-30T15:14:40.401Z,12.70
2018-03-30T15:17:32.697Z,12.77
2018-03-30T15:20:04.663Z,12.00
2018-03-30T15:22:51.758Z,12.20
2018-03-30T15:25:24.801Z,12.77
2018-03-30T15:27:55.087Z,12.60
2018-03-30T15:30:36.294Z,12.57
2018-03-30T15:33:06.635Z,12.20
2018-03-30T15:35:34.181Z,12.77
2018-03-30T15:38:02.475Z,11.97
2018-03-30T15:40:30.717Z,12.33
2018-03-30T15:42:59.853Z,13.33
2018-03-30T15:45:44.938Z,12.13
2018-03-30T15:48:12.490Z,12.80
2018-03-30T15:50:40.798Z,11.23
2018-03-30T15:53:23.073Z,12.47
2018-03-30T15:55:51.371Z,12.87
2018-03-30T15:58:18.903Z,11.77
2018-03-30T16:00:47.218Z,11.47
2018-03-30T16:03:14.774Z,11.83
2018-03-30T16:05:42.292Z,11.70
2018-03-30T16:08:09.820Z,11.30
2018-03-30T16:10:41.981Z,12.07
2018-03-30T16:13:09.509Z,12.23
2018-03-30T16:15:37.010Z,12.27
2018-03-30T16:18:04.560Z,11.60
2018-03-30T16:20:31.591Z,11.97
2018-03-30T16:22:58.638Z,11.87
2018-03-30T16:25:25.660Z,11.50
2018-03-30T16:27:52.707Z,13.47
2018-03-30T16:30:19.740Z,11.07
2018-03-30T16:32:47.526Z,11.97
2018-03-30T16:35:14.552Z,10.73
2018-03-30T16:37:41.564Z,11.67
2018-03-30T16:40:08.578Z,10.67
2018-03-30T16:42:35.636Z,10.90
2018-03-30T16:45:02.652Z,11.00
2018-03-30T16:47:29.684Z,11.43
2018-03-30T16:49:57.466Z,10.50
2018-03-30T16:52:24.567Z,11.13
2018-03-30T16:54:51.613Z,11.53
2018-03-30T16:57:18.671Z,13.23
2018-03-30T16:59:45.711Z,12.90
2018-03-30T17:02:12.723Z,13.63
2018-03-30T17:04:39.762Z,13.30
2018-03-30T17:07:06.811Z,13.70
2018-03-30T17:09:33.851Z,14.13
2018-03-30T17:12:00.893Z,14.47
2018-03-30T17:14:27.947Z,13.50
2018-03-30T17:16:54.992Z,13.10
2018-03-30T17:19:22.013Z,16.70
2018-03-30T17:21:49.798Z,17.20
2018-03-30T17:24:16.855Z,15.23
2018-03-30T17:26:43.902Z,14.30
2018-03-30T17:29:11.020Z,14.67
2018-03-30T17:31:38.859Z,14.60
2018-03-30T17:34:05.896Z,14.43
2018-03-30T17:36:33.010Z,14.70
2018-03-30T17:39:00.085Z,14.13
2018-03-30T17:41:27.884Z,14.93
2018-03-30T17:43:55.668Z,17.97
2018-03-30T17:46:22.708Z,15.47
2018-03-30T17:48:50.514Z,15.60
2018-03-30T17:51:17.559Z,15.67
2018-03-30T17:53:44.658Z,15.30
2018-03-30T17:56:12.577Z,15.17
2018-03-30T17:58:39.649Z,16.17
2018-03-30T18:01:06.703Z,14.67
2018-03-30T18:03:33.847Z,15.53
2018-03-30T18:06:00.895Z,16.77
2018-03-30T18:08:27.980Z,15.77
2018-03-30T18:10:55.010Z,15.57
2018-03-30T18:13:22.193Z,16.77
2018-03-30T18:15:49.221Z,16.97
2018-03-30T18:18:16.249Z,15.73
2018-03-30T18:20:44.070Z,16.37
2018-03-30T18:23:11.132Z,14.20
2018-03-30T18:25:38.171Z,15.87
2018-03-30T18:28:05.202Z,16.90
2018-03-30T18:30:32.233Z,17.80
2018-03-30T18:32:59.268Z,21.33
2018-03-30T18:35:27.065Z,18.60
2018-03-30T18:37:54.116Z,18.60
2018-03-30T18:40:21.181Z,18.30
2018-03-30T18:42:48.227Z,18.67
2018-03-30T18:45:15.473Z,17.30
2018-03-30T18:47:42.524Z,16.93
2018-03-30T18:50:10.355Z,18.37
2018-03-30T18:52:37.432Z,17.43
2018-03-30T18:55:04.476Z,17.90
2018-03-30T18:57:31.523Z,17.23
2018-03-30T18:59:58.594Z,18.17
2018-03-30T19:02:25.647Z,16.97
2018-03-30T19:04:52.692Z,15.93
2018-03-30T19:07:19.761Z,15.50
2018-03-30T19:09:47.451Z,16.43
2018-03-30T19:12:14.506Z,18.33
2018-03-30T19:14:41.581Z,15.67
2018-03-30T19:17:08.646Z,18.13
2018-03-30T19:19:35.715Z,15.20
2018-03-30T19:22:03.580Z,15.93
2018-03-30T19:24:30.659Z,15.93
2018-03-30T19:26:57.748Z,15.27
2018-03-30T19:29:24.817Z,14.43
2018-03-30T19:31:51.865Z,17.23
2018-03-30T19:34:18.928Z,15.70
2018-03-30T19:36:45.999Z,18.53
2018-03-30T19:39:13.076Z,15.80
2018-03-30T19:41:40.164Z,17.23
2018-03-30T19:44:07.985Z,16.20
2018-03-30T19:46:35.065Z,14.90
2018-03-30T19:49:02.159Z,15.67
2018-03-30T19:51:29.982Z,15.47
2018-03-30T19:53:58.094Z,15.27
2018-03-30T19:56:25.153Z,15.90
2018-03-30T19:58:52.247Z,13.83
2018-03-30T20:01:19.333Z,13.67
2018-03-30T20:03:46.364Z,16.77
2018-03-30T20:06:13.394Z,17.73
2018-03-30T20:08:40.496Z,17.60
2018-03-30T20:11:07.516Z,14.83
2018-03-30T20:13:34.588Z,15.70
2018-03-30T20:16:02.760Z,14.93
2018-03-30T20:18:29.859Z,15.70
2018-03-30T20:20:57.712Z,15.77
2018-03-30T20:23:24.786Z,14.93
2018-03-30T20:25:51.864Z,13.87
2018-03-30T20:28:18.948Z,17.17
2018-03-30T20:30:46.774Z,13.97
2018-03-30T20:33:13.849Z,13.53
2018-03-30T20:35:41.478Z,13.10
2018-03-30T20:38:08.549Z,14.27
2018-03-30T20:40:35.649Z,12.70
2018-03-30T20:43:02.686Z,12.67
2018-03-30T20:45:31.146Z,12.50
2018-03-30T20:47:59.042Z,12.87
2018-03-30T20:50:26.178Z,12.50
2018-03-30T20:52:53.226Z,12.70
2018-03-30T20:55:20.295Z,11.77
2018-03-30T20:57:47.360Z,12.57
2018-03-30T21:00:14.472Z,12.70
2018-03-30T21:02:41.645Z,14.33
2018-03-30T21:05:09.277Z,14.33
2018-03-30T21:07:36.335Z,12.23
2018-03-30T21:10:03.374Z,12.17
2018-03-30T21:12:30.422Z,11.73
2018-03-30T21:14:58.252Z,11.60
2018-03-30T21:17:26.404Z,12.43
2018-03-30T21:19:53.384Z,14.63
2018-03-30T21:22:20.429Z,16.60
2018-03-30T21:24:47.460Z,14.07
2018-03-30T21:27:14.501Z,13.43
2018-03-30T21:29:41.528Z,15.27
2018-03-30T21:32:08.566Z,12.57
2018-03-30T21:34:35.610Z,12.70
2018-03-30T21:37:02.645Z,11.40
2018-03-30T21:39:29.745Z,11.80
2018-03-30T21:41:57.240Z,12.53
2018-03-30T21:44:24.272Z,10.90
2018-03-30T21:46:51.305Z,11.10
2018-03-30T21:49:18.323Z,13.13
2018-03-30T21:51:45.364Z,11.03
2018-03-30T21:54:12.397Z,11.23
2018-03-30T21:56:39.478Z,10.83
2018-03-30T21:59:06.517Z,10.90
2018-03-30T22:01:35.719Z,10.00
2018-03-30T22:04:02.747Z,10.47
2018-03-30T22:06:29.782Z,10.77
2018-03-30T22:08:56.798Z,13.37
2018-03-30T22:11:23.827Z,11.63
2018-03-30T22:13:50.841Z,10.53
2018-03-30T22:16:17.874Z,11.30
2018-03-30T22:18:44.912Z,12.43
2018-03-30T22:21:12.025Z,11.80
2018-03-30T22:23:39.057Z,9.90
2018-03-30T22:26:06.090Z,9.90
2018-03-30T22:28:33.103Z,9.43
2018-03-30T22:31:01.491Z,9.77
2018-03-30T22:33:28.576Z,8.17
2018-03-30T22:35:55.610Z,8.83
2018-03-30T22:38:22.619Z,8.27
2018-03-30T22:40:49.654Z,8.27
2018-03-30T22:43:16.674Z,9.50
2018-03-30T22:45:44.445Z,8.90
2018-03-30T22:48:12.247Z,8.10
2018-03-30T22:50:39.266Z,7.87
2018-03-30T22:53:06.305Z,9.23
2018-03-30T22:55:33.320Z,10.10
2018-03-30T22:58:00.347Z,8.53
2018-03-30T23:00:27.375Z,7.97
2018-03-30T23:02:54.410Z,8.10
2018-03-30T23:05:21.435Z,7.47
2018-03-30T23:07:49.210Z,7.57
2018-03-30T23:10:16.262Z,8.00
2018-03-30T23:12:43.287Z,7.70
2018-03-30T23:15:10.310Z,8.50
2018-03-30T23:17:37.349Z,8.33
2018-03-30T23:20:05.292Z,7.73
2018-03-30T23:22:32.309Z,10.03
2018-03-30T23:24:59.337Z,8.10
2018-03-30T23:27:26.357Z,9.70
2018-03-30T23:29:53.383Z,8.27
2018-03-30T23:32:20.386Z,9.40
2018-03-30T23:34:48.199Z,8.83
2018-03-30T23:37:16.626Z,9.23
2018-03-30T23:39:43.652Z,8.77
2018-03-30T23:42:10.722Z,9.03
2018-03-30T23:44:37.764Z,8.50
2018-03-30T23:47:05.581Z,8.70
2018-03-30T23:49:32.619Z,8.43
2018-03-30T23:51:59.695Z,8.97
2018-03-30T23:54:26.719Z,9.77
2018-03-30T23:56:54.559Z,8.43
2018-03-30T23:59:21.579Z,8.57
